This is the latest recevied weather packets stored in our database for station/object dl9mfl-6. If no packets are shown the sender has not sent any weather packets the latest 10 day(s).
| Time | Temp. | Humidity | Pressure | Rain* | Wind** | Luminosity | Snow |
|---|---|---|---|---|---|---|---|
| 1777736267 | 10° C | 71% | 1020.8 hPa | 0 mm | - | - | - |
| 1777736263 | 10° C | 71% | 1020.8 hPa | 0 mm | - | - | - |
| 1777736254 | 9.44° C | 72% | 1020.8 hPa | 0 mm | - | - | - |
| 1777736250 | 9.44° C | 72% | 1020.8 hPa | 0 mm | - | - | - |
| 1777736242 | 9.44° C | 72% | 1020.8 hPa | 0 mm | - | - | - |
| 1777736238 | 25.56° C | 30% | 1016 hPa | 0 mm | - | - | - |
| 1777736234 | 25.56° C | 31% | 1016 hPa | 0 mm | - | - | - |
| 1777736100 | 9.44° C | 72% | 1020.8 hPa | 0 mm | - | - | - |
| 1777736096 | 9.44° C | 72% | 1020.8 hPa | 0 mm | - | - | - |
| 1777736091 | 25.56° C | 31% | 1016 hPa | 0 mm | - | - | - |
| 1777736087 | 9.44° C | 72% | 1020.8 hPa | 0 mm | - | - | - |
| 1777736079 | 9.44° C | 72% | 1020.8 hPa | 0 mm | - | - | - |
| 1777736075 | 25.56° C | 30% | 1015.8 hPa | 0 mm | - | - | - |
| 1777736066 | 25.56° C | 29% | 1015.8 hPa | 0 mm | - | - | - |
| 1777735927 | 25.56° C | 29% | 1015.8 hPa | 0 mm | - | - | - |
| 1777735923 | 25.56° C | 31% | 1016 hPa | 0 mm | - | - | - |
| 1777735915 | 25.56° C | 29% | 1016 hPa | 0 mm | - | - | - |
| 1777735776 | 25.56° C | 29% | 1016 hPa | 0 mm | - | - | - |
| 1777735767 | 25.56° C | 30% | 1016 hPa | 0 mm | - | - | - |
| 1777735631 | 9.44° C | 71% | 1020.8 hPa | 0 mm | - | - | - |
| 1777735627 | 9.44° C | 71% | 1020.8 hPa | 0 mm | - | - | - |
| 1777735623 | 9.44° C | 71% | 1020.8 hPa | 0 mm | - | - | - |
| 1777735619 | 25.56° C | 29% | 1016 hPa | 0 mm | - | - | - |
| 1777735615 | 26.11° C | 28% | 1016 hPa | 0 mm | - | - | - |
| 1777735611 | 25.56° C | 30% | 1016 hPa | 0 mm | - | - | - |
* Rain latest hour (hover to see other rain measurements)
** Current wind speed in m/s (hover to see current wind gust speed)